sensor_id;sensor_type;location;lat;lon;timestamp;P1;durP1;ratioP1;P2;durP2;ratioP2
53881;SDS011;39794;55.782;37.452;2022-09-09T00:00:20;4.57;;;2.08;;
53881;SDS011;39794;55.782;37.452;2022-09-09T00:02:51;3.95;;;2.13;;
53881;SDS011;39794;55.782;37.452;2022-09-09T00:05:25;2.55;;;2.13;;
53881;SDS011;39794;55.782;37.452;2022-09-09T00:07:58;3.15;;;2.00;;
53881;SDS011;39794;55.782;37.452;2022-09-09T00:10:28;3.10;;;2.28;;
53881;SDS011;39794;55.782;37.452;2022-09-09T00:13:00;3.95;;;2.00;;
53881;SDS011;39794;55.782;37.452;2022-09-09T00:15:34;3.53;;;2.03;;
53881;SDS011;39794;55.782;37.452;2022-09-09T00:18:13;5.07;;;2.20;;
53881;SDS011;39794;55.782;37.452;2022-09-09T00:20:49;2.22;;;1.70;;
53881;SDS011;39794;55.782;37.452;2022-09-09T00:23:24;4.50;;;2.63;;
53881;SDS011;39794;55.782;37.452;2022-09-09T00:25:55;4.03;;;1.85;;
53881;SDS011;39794;55.782;37.452;2022-09-09T00:30:59;3.53;;;2.35;;
53881;SDS011;39794;55.782;37.452;2022-09-09T00:33:29;4.13;;;2.60;;
53881;SDS011;39794;55.782;37.452;2022-09-09T00:36:00;2.45;;;2.05;;
53881;SDS011;39794;55.782;37.452;2022-09-09T00:38:32;4.03;;;2.30;;
53881;SDS011;39794;55.782;37.452;2022-09-09T00:41:05;5.20;;;2.38;;
53881;SDS011;39794;55.782;37.452;2022-09-09T00:43:38;4.90;;;2.50;;
53881;SDS011;39794;55.782;37.452;2022-09-09T00:46:13;5.22;;;2.40;;
53881;SDS011;39794;55.782;37.452;2022-09-09T00:48:56;4.97;;;2.40;;
53881;SDS011;39794;55.782;37.452;2022-09-09T00:51:33;4.35;;;2.10;;
53881;SDS011;39794;55.782;37.452;2022-09-09T00:54:10;3.92;;;2.47;;
53881;SDS011;39794;55.782;37.452;2022-09-09T00:56:47;4.18;;;2.55;;
53881;SDS011;39794;55.782;37.452;2022-09-09T00:59:24;2.30;;;1.83;;
53881;SDS011;39794;55.782;37.452;2022-09-09T01:01:55;3.03;;;2.40;;
53881;SDS011;39794;55.782;37.452;2022-09-09T01:04:26;2.92;;;1.83;;
53881;SDS011;39794;55.782;37.452;2022-09-09T01:07:01;2.87;;;2.10;;
53881;SDS011;39794;55.782;37.452;2022-09-09T01:09:38;3.92;;;2.70;;
53881;SDS011;39794;55.782;37.452;2022-09-09T01:12:14;3.17;;;2.15;;
53881;SDS011;39794;55.782;37.452;2022-09-09T01:14:49;3.60;;;2.40;;
53881;SDS011;39794;55.782;37.452;2022-09-09T01:17:21;3.58;;;2.42;;
53881;SDS011;39794;55.782;37.452;2022-09-09T01:20:02;3.83;;;2.33;;
53881;SDS011;39794;55.782;37.452;2022-09-09T01:22:43;4.20;;;2.13;;
53881;SDS011;39794;55.782;37.452;2022-09-09T01:28:25;3.20;;;2.38;;
53881;SDS011;39794;55.782;37.452;2022-09-09T01:31:01;4.70;;;2.05;;
53881;SDS011;39794;55.782;37.452;2022-09-09T01:33:38;3.55;;;2.47;;
53881;SDS011;39794;55.782;37.452;2022-09-09T01:36:08;6.55;;;2.85;;
53881;SDS011;39794;55.782;37.452;2022-09-09T01:38:46;3.30;;;2.63;;
53881;SDS011;39794;55.782;37.452;2022-09-09T01:41:16;4.88;;;2.88;;
53881;SDS011;39794;55.782;37.452;2022-09-09T01:44:05;4.53;;;2.50;;
53881;SDS011;39794;55.782;37.452;2022-09-09T01:46:36;2.90;;;2.05;;
53881;SDS011;39794;55.782;37.452;2022-09-09T01:49:10;3.45;;;2.50;;
53881;SDS011;39794;55.782;37.452;2022-09-09T01:51:39;3.10;;;2.33;;
53881;SDS011;39794;55.782;37.452;2022-09-09T01:54:12;5.03;;;2.92;;
53881;SDS011;39794;55.782;37.452;2022-09-09T01:56:43;3.63;;;2.10;;
53881;SDS011;39794;55.782;37.452;2022-09-09T01:59:24;3.65;;;2.17;;
53881;SDS011;39794;55.782;37.452;2022-09-09T02:02:02;4.13;;;2.35;;
53881;SDS011;39794;55.782;37.452;2022-09-09T02:04:42;4.70;;;2.38;;
53881;SDS011;39794;55.782;37.452;2022-09-09T02:07:25;4.43;;;2.53;;
53881;SDS011;39794;55.782;37.452;2022-09-09T02:10:00;4.07;;;2.38;;
53881;SDS011;39794;55.782;37.452;2022-09-09T02:12:32;4.80;;;2.67;;
53881;SDS011;39794;55.782;37.452;2022-09-09T02:15:05;4.15;;;2.60;;
53881;SDS011;39794;55.782;37.452;2022-09-09T02:17:45;3.80;;;2.25;;
53881;SDS011;39794;55.782;37.452;2022-09-09T02:20:16;3.63;;;2.50;;
53881;SDS011;39794;55.782;37.452;2022-09-09T02:22:52;2.78;;;2.10;;
53881;SDS011;39794;55.782;37.452;2022-09-09T02:25:24;4.72;;;2.55;;
53881;SDS011;39794;55.782;37.452;2022-09-09T02:27:58;2.53;;;2.20;;
53881;SDS011;39794;55.782;37.452;2022-09-09T02:30:29;4.55;;;2.55;;
53881;SDS011;39794;55.782;37.452;2022-09-09T02:33:01;4.80;;;2.30;;
53881;SDS011;39794;55.782;37.452;2022-09-09T02:35:48;3.10;;;2.40;;
53881;SDS011;39794;55.782;37.452;2022-09-09T02:38:21;3.22;;;2.33;;
53881;SDS011;39794;55.782;37.452;2022-09-09T02:40:59;3.60;;;2.20;;
53881;SDS011;39794;55.782;37.452;2022-09-09T02:43:30;3.20;;;2.40;;
53881;SDS011;39794;55.782;37.452;2022-09-09T02:46:05;2.75;;;2.35;;
53881;SDS011;39794;55.782;37.452;2022-09-09T02:48:39;3.13;;;1.90;;
53881;SDS011;39794;55.782;37.452;2022-09-09T02:51:15;2.65;;;2.10;;
53881;SDS011;39794;55.782;37.452;2022-09-09T02:53:49;4.50;;;2.60;;
53881;SDS011;39794;55.782;37.452;2022-09-09T02:56:23;3.30;;;2.30;;
53881;SDS011;39794;55.782;37.452;2022-09-09T02:58:55;3.95;;;2.35;;
53881;SDS011;39794;55.782;37.452;2022-09-09T03:01:27;3.58;;;2.20;;
53881;SDS011;39794;55.782;37.452;2022-09-09T03:03:55;3.60;;;2.40;;
53881;SDS011;39794;55.782;37.452;2022-09-09T03:06:24;3.83;;;2.35;;
53881;SDS011;39794;55.782;37.452;2022-09-09T03:09:02;3.70;;;2.50;;
53881;SDS011;39794;55.782;37.452;2022-09-09T03:11:31;4.47;;;2.40;;
53881;SDS011;39794;55.782;37.452;2022-09-09T03:14:00;3.78;;;2.63;;
53881;SDS011;39794;55.782;37.452;2022-09-09T03:16:32;4.65;;;2.28;;
53881;SDS011;39794;55.782;37.452;2022-09-09T03:19:01;3.88;;;2.55;;
53881;SDS011;39794;55.782;37.452;2022-09-09T03:21:30;3.35;;;2.50;;
53881;SDS011;39794;55.782;37.452;2022-09-09T03:23:59;2.25;;;1.90;;
53881;SDS011;39794;55.782;37.452;2022-09-09T03:26:30;5.45;;;2.00;;
53881;SDS011;39794;55.782;37.452;2022-09-09T03:28:59;3.63;;;2.58;;
53881;SDS011;39794;55.782;37.452;2022-09-09T03:31:29;5.53;;;2.58;;
53881;SDS011;39794;55.782;37.452;2022-09-09T03:34:00;3.67;;;2.20;;
53881;SDS011;39794;55.782;37.452;2022-09-09T03:36:32;2.90;;;2.08;;
53881;SDS011;39794;55.782;37.452;2022-09-09T03:39:01;3.00;;;2.13;;
53881;SDS011;39794;55.782;37.452;2022-09-09T03:41:30;5.15;;;3.03;;
53881;SDS011;39794;55.782;37.452;2022-09-09T03:44:01;4.10;;;2.70;;
53881;SDS011;39794;55.782;37.452;2022-09-09T03:46:35;3.55;;;2.45;;
53881;SDS011;39794;55.782;37.452;2022-09-09T03:49:06;2.53;;;2.10;;
53881;SDS011;39794;55.782;37.452;2022-09-09T03:51:35;4.78;;;3.13;;
53881;SDS011;39794;55.782;37.452;2022-09-09T03:54:05;7.70;;;1.83;;
53881;SDS011;39794;55.782;37.452;2022-09-09T03:56:37;3.22;;;2.17;;
53881;SDS011;39794;55.782;37.452;2022-09-09T03:59:10;4.45;;;2.50;;
53881;SDS011;39794;55.782;37.452;2022-09-09T04:01:38;2.83;;;2.20;;
53881;SDS011;39794;55.782;37.452;2022-09-09T04:04:09;3.53;;;1.73;;
53881;SDS011;39794;55.782;37.452;2022-09-09T04:06:39;2.78;;;2.15;;
53881;SDS011;39794;55.782;37.452;2022-09-09T04:09:07;2.42;;;1.73;;
53881;SDS011;39794;55.782;37.452;2022-09-09T04:11:36;5.80;;;2.83;;
53881;SDS011;39794;55.782;37.452;2022-09-09T04:14:05;4.15;;;2.45;;
53881;SDS011;39794;55.782;37.452;2022-09-09T04:16:34;5.40;;;2.58;;
53881;SDS011;39794;55.782;37.452;2022-09-09T04:19:04;5.07;;;2.65;;
53881;SDS011;39794;55.782;37.452;2022-09-09T04:21:36;5.03;;;2.08;;
53881;SDS011;39794;55.782;37.452;2022-09-09T04:24:06;3.45;;;2.58;;
53881;SDS011;39794;55.782;37.452;2022-09-09T04:26:36;4.05;;;2.60;;
53881;SDS011;39794;55.782;37.452;2022-09-09T04:29:07;4.90;;;2.90;;
53881;SDS011;39794;55.782;37.452;2022-09-09T04:31:37;4.35;;;2.67;;
53881;SDS011;39794;55.782;37.452;2022-09-09T04:34:09;5.53;;;2.65;;
53881;SDS011;39794;55.782;37.452;2022-09-09T04:36:39;7.43;;;3.05;;
53881;SDS011;39794;55.782;37.452;2022-09-09T04:39:08;2.95;;;2.60;;
53881;SDS011;39794;55.782;37.452;2022-09-09T04:41:39;3.90;;;2.55;;
53881;SDS011;39794;55.782;37.452;2022-09-09T04:44:09;3.47;;;2.20;;
53881;SDS011;39794;55.782;37.452;2022-09-09T04:46:38;3.03;;;2.38;;
53881;SDS011;39794;55.782;37.452;2022-09-09T04:49:09;3.33;;;2.50;;
53881;SDS011;39794;55.782;37.452;2022-09-09T04:51:43;8.40;;;4.07;;
53881;SDS011;39794;55.782;37.452;2022-09-09T04:54:13;4.97;;;2.53;;
53881;SDS011;39794;55.782;37.452;2022-09-09T04:56:43;3.85;;;2.88;;
53881;SDS011;39794;55.782;37.452;2022-09-09T04:59:13;4.18;;;2.78;;
53881;SDS011;39794;55.782;37.452;2022-09-09T05:01:46;3.35;;;3.05;;
53881;SDS011;39794;55.782;37.452;2022-09-09T05:04:15;4.40;;;2.65;;
53881;SDS011;39794;55.782;37.452;2022-09-09T05:06:45;8.13;;;2.90;;
53881;SDS011;39794;55.782;37.452;2022-09-09T05:09:13;4.93;;;3.33;;
53881;SDS011;39794;55.782;37.452;2022-09-09T05:11:44;3.63;;;3.05;;
53881;SDS011;39794;55.782;37.452;2022-09-09T05:14:23;3.83;;;2.60;;
53881;SDS011;39794;55.782;37.452;2022-09-09T05:16:51;5.82;;;3.30;;
53881;SDS011;39794;55.782;37.452;2022-09-09T05:19:21;5.13;;;3.20;;
53881;SDS011;39794;55.782;37.452;2022-09-09T05:21:53;6.57;;;3.13;;
53881;SDS011;39794;55.782;37.452;2022-09-09T05:24:28;3.85;;;2.70;;
53881;SDS011;39794;55.782;37.452;2022-09-09T05:27:01;6.00;;;2.53;;
53881;SDS011;39794;55.782;37.452;2022-09-09T05:29:35;4.13;;;2.72;;
53881;SDS011;39794;55.782;37.452;2022-09-09T05:32:06;4.13;;;2.05;;
53881;SDS011;39794;55.782;37.452;2022-09-09T05:34:41;6.60;;;2.50;;
53881;SDS011;39794;55.782;37.452;2022-09-09T05:37:12;5.28;;;2.78;;
53881;SDS011;39794;55.782;37.452;2022-09-09T05:39:41;7.07;;;2.80;;
53881;SDS011;39794;55.782;37.452;2022-09-09T05:42:11;6.35;;;2.33;;
53881;SDS011;39794;55.782;37.452;2022-09-09T05:44:40;5.40;;;2.53;;
53881;SDS011;39794;55.782;37.452;2022-09-09T05:47:09;6.55;;;2.42;;
53881;SDS011;39794;55.782;37.452;2022-09-09T05:49:38;3.40;;;2.45;;
53881;SDS011;39794;55.782;37.452;2022-09-09T05:52:07;5.03;;;2.63;;
53881;SDS011;39794;55.782;37.452;2022-09-09T05:54:37;5.00;;;2.30;;
53881;SDS011;39794;55.782;37.452;2022-09-09T05:57:07;4.38;;;2.03;;
53881;SDS011;39794;55.782;37.452;2022-09-09T05:59:37;3.30;;;1.00;;
53881;SDS011;39794;55.782;37.452;2022-09-09T06:02:05;3.38;;;1.73;;
53881;SDS011;39794;55.782;37.452;2022-09-09T06:04:36;4.57;;;2.05;;
53881;SDS011;39794;55.782;37.452;2022-09-09T06:07:05;2.85;;;1.58;;
53881;SDS011;39794;55.782;37.452;2022-09-09T06:09:34;2.75;;;1.42;;
53881;SDS011;39794;55.782;37.452;2022-09-09T06:12:05;2.13;;;1.10;;
53881;SDS011;39794;55.782;37.452;2022-09-09T06:14:35;1.10;;;1.00;;
53881;SDS011;39794;55.782;37.452;2022-09-09T06:17:08;1.50;;;1.30;;
53881;SDS011;39794;55.782;37.452;2022-09-09T06:19:37;2.65;;;1.10;;
53881;SDS011;39794;55.782;37.452;2022-09-09T06:22:07;2.42;;;1.30;;
53881;SDS011;39794;55.782;37.452;2022-09-09T06:24:40;1.40;;;0.95;;
53881;SDS011;39794;55.782;37.452;2022-09-09T06:27:10;1.60;;;1.05;;
53881;SDS011;39794;55.782;37.452;2022-09-09T06:29:41;1.83;;;1.08;;
53881;SDS011;39794;55.782;37.452;2022-09-09T06:32:09;1.83;;;1.10;;
53881;SDS011;39794;55.782;37.452;2022-09-09T06:34:38;2.45;;;0.75;;
53881;SDS011;39794;55.782;37.452;2022-09-09T06:37:06;1.10;;;1.00;;
53881;SDS011;39794;55.782;37.452;2022-09-09T06:39:40;2.40;;;1.05;;
53881;SDS011;39794;55.782;37.452;2022-09-09T06:42:11;2.63;;;0.95;;
53881;SDS011;39794;55.782;37.452;2022-09-09T06:44:42;5.45;;;1.52;;
53881;SDS011;39794;55.782;37.452;2022-09-09T06:47:17;1.98;;;0.70;;
53881;SDS011;39794;55.782;37.452;2022-09-09T06:49:48;0.45;;;0.45;;
53881;SDS011;39794;55.782;37.452;2022-09-09T06:52:17;0.93;;;0.68;;
53881;SDS011;39794;55.782;37.452;2022-09-09T06:54:46;1.30;;;0.80;;
53881;SDS011;39794;55.782;37.452;2022-09-09T06:57:17;3.10;;;0.98;;
53881;SDS011;39794;55.782;37.452;2022-09-09T07:00:04;1.35;;;0.73;;
53881;SDS011;39794;55.782;37.452;2022-09-09T07:02:33;0.60;;;0.43;;
53881;SDS011;39794;55.782;37.452;2022-09-09T07:05:07;2.13;;;0.90;;
53881;SDS011;39794;55.782;37.452;2022-09-09T07:07:37;1.75;;;0.70;;
53881;SDS011;39794;55.782;37.452;2022-09-09T07:10:07;0.90;;;0.80;;
53881;SDS011;39794;55.782;37.452;2022-09-09T07:12:38;1.25;;;0.75;;
53881;SDS011;39794;55.782;37.452;2022-09-09T07:15:09;2.30;;;0.70;;
53881;SDS011;39794;55.782;37.452;2022-09-09T07:17:42;1.45;;;0.80;;
53881;SDS011;39794;55.782;37.452;2022-09-09T07:20:11;3.35;;;0.70;;
53881;SDS011;39794;55.782;37.452;2022-09-09T07:22:41;2.13;;;0.70;;
53881;SDS011;39794;55.782;37.452;2022-09-09T07:25:10;1.17;;;0.77;;
53881;SDS011;39794;55.782;37.452;2022-09-09T07:27:40;2.28;;;0.60;;
53881;SDS011;39794;55.782;37.452;2022-09-09T07:30:09;1.42;;;0.73;;
53881;SDS011;39794;55.782;37.452;2022-09-09T07:32:47;3.15;;;0.90;;
53881;SDS011;39794;55.782;37.452;2022-09-09T07:35:16;5.60;;;0.93;;
53881;SDS011;39794;55.782;37.452;2022-09-09T07:37:45;3.13;;;0.73;;
53881;SDS011;39794;55.782;37.452;2022-09-09T07:40:18;3.58;;;0.95;;
53881;SDS011;39794;55.782;37.452;2022-09-09T07:42:50;4.63;;;0.93;;
53881;SDS011;39794;55.782;37.452;2022-09-09T07:45:20;2.00;;;0.75;;
53881;SDS011;39794;55.782;37.452;2022-09-09T07:47:49;0.85;;;0.70;;
53881;SDS011;39794;55.782;37.452;2022-09-09T07:50:20;1.23;;;0.55;;
53881;SDS011;39794;55.782;37.452;2022-09-09T07:52:49;1.05;;;0.70;;
53881;SDS011;39794;55.782;37.452;2022-09-09T07:55:19;4.45;;;0.90;;
53881;SDS011;39794;55.782;37.452;2022-09-09T07:57:48;2.25;;;0.90;;
53881;SDS011;39794;55.782;37.452;2022-09-09T08:00:18;1.02;;;0.68;;
53881;SDS011;39794;55.782;37.452;2022-09-09T08:02:52;1.15;;;0.60;;
53881;SDS011;39794;55.782;37.452;2022-09-09T08:05:22;6.82;;;1.33;;
53881;SDS011;39794;55.782;37.452;2022-09-09T08:07:50;2.33;;;0.85;;
53881;SDS011;39794;55.782;37.452;2022-09-09T08:10:19;1.17;;;0.80;;
53881;SDS011;39794;55.782;37.452;2022-09-09T08:12:49;2.15;;;0.98;;
53881;SDS011;39794;55.782;37.452;2022-09-09T08:15:39;1.88;;;0.47;;
53881;SDS011;39794;55.782;37.452;2022-09-09T08:18:09;0.60;;;0.50;;
53881;SDS011;39794;55.782;37.452;2022-09-09T08:20:37;1.23;;;0.68;;
53881;SDS011;39794;55.782;37.452;2022-09-09T08:23:06;2.72;;;0.50;;
53881;SDS011;39794;55.782;37.452;2022-09-09T08:25:35;6.32;;;0.63;;
53881;SDS011;39794;55.782;37.452;2022-09-09T08:28:03;2.33;;;0.90;;
53881;SDS011;39794;55.782;37.452;2022-09-09T08:30:32;2.95;;;1.30;;
53881;SDS011;39794;55.782;37.452;2022-09-09T08:33:02;2.70;;;0.95;;
53881;SDS011;39794;55.782;37.452;2022-09-09T08:35:30;1.65;;;0.80;;
53881;SDS011;39794;55.782;37.452;2022-09-09T08:38:00;4.90;;;1.00;;
53881;SDS011;39794;55.782;37.452;2022-09-09T08:40:37;4.05;;;1.08;;
53881;SDS011;39794;55.782;37.452;2022-09-09T08:43:08;2.22;;;0.65;;
53881;SDS011;39794;55.782;37.452;2022-09-09T08:45:37;1.88;;;0.70;;
53881;SDS011;39794;55.782;37.452;2022-09-09T08:48:21;0.75;;;0.60;;
53881;SDS011;39794;55.782;37.452;2022-09-09T08:51:02;1.85;;;0.60;;
53881;SDS011;39794;55.782;37.452;2022-09-09T08:53:38;0.55;;;0.55;;
53881;SDS011;39794;55.782;37.452;2022-09-09T08:56:11;0.50;;;0.50;;
53881;SDS011;39794;55.782;37.452;2022-09-09T08:58:47;4.50;;;0.88;;
53881;SDS011;39794;55.782;37.452;2022-09-09T09:07:32;1.95;;;1.00;;
53881;SDS011;39794;55.782;37.452;2022-09-09T09:10:10;0.60;;;0.47;;
53881;SDS011;39794;55.782;37.452;2022-09-09T09:13:07;3.17;;;0.80;;
53881;SDS011;39794;55.782;37.452;2022-09-09T09:18:10;0.88;;;0.70;;
53881;SDS011;39794;55.782;37.452;2022-09-09T09:20:46;4.90;;;0.90;;
53881;SDS011;39794;55.782;37.452;2022-09-09T09:23:21;1.98;;;1.10;;
53881;SDS011;39794;55.782;37.452;2022-09-09T09:25:55;1.48;;;0.70;;
53881;SDS011;39794;55.782;37.452;2022-09-09T09:28:29;3.28;;;0.90;;
53881;SDS011;39794;55.782;37.452;2022-09-09T09:31:06;2.25;;;1.00;;
53881;SDS011;39794;55.782;37.452;2022-09-09T09:33:38;5.00;;;1.02;;
53881;SDS011;39794;55.782;37.452;2022-09-09T09:36:15;1.00;;;0.57;;
53881;SDS011;39794;55.782;37.452;2022-09-09T09:38:51;0.60;;;0.60;;
53881;SDS011;39794;55.782;37.452;2022-09-09T09:41:43;1.50;;;0.68;;
53881;SDS011;39794;55.782;37.452;2022-09-09T09:44:23;1.05;;;0.80;;
53881;SDS011;39794;55.782;37.452;2022-09-09T09:47:05;0.43;;;0.43;;
53881;SDS011;39794;55.782;37.452;2022-09-09T09:49:34;3.60;;;0.50;;
53881;SDS011;39794;55.782;37.452;2022-09-09T09:52:06;0.73;;;0.63;;
53881;SDS011;39794;55.782;37.452;2022-09-09T09:54:41;3.10;;;0.90;;
53881;SDS011;39794;55.782;37.452;2022-09-09T09:57:10;2.80;;;0.80;;
53881;SDS011;39794;55.782;37.452;2022-09-09T09:59:42;1.10;;;0.60;;
53881;SDS011;39794;55.782;37.452;2022-09-09T10:02:25;6.45;;;0.65;;
53881;SDS011;39794;55.782;37.452;2022-09-09T10:05:03;2.67;;;0.60;;
53881;SDS011;39794;55.782;37.452;2022-09-09T10:07:36;1.00;;;0.50;;
53881;SDS011;39794;55.782;37.452;2022-09-09T10:10:07;0.73;;;0.50;;
53881;SDS011;39794;55.782;37.452;2022-09-09T10:12:41;1.15;;;0.73;;
53881;SDS011;39794;55.782;37.452;2022-09-09T10:15:21;1.50;;;0.90;;
53881;SDS011;39794;55.782;37.452;2022-09-09T10:18:00;1.25;;;0.50;;
53881;SDS011;39794;55.782;37.452;2022-09-09T10:20:37;5.28;;;0.73;;
53881;SDS011;39794;55.782;37.452;2022-09-09T10:23:16;0.52;;;0.52;;
53881;SDS011;39794;55.782;37.452;2022-09-09T10:26:01;1.42;;;0.70;;
53881;SDS011;39794;55.782;37.452;2022-09-09T10:31:33;1.10;;;0.90;;
53881;SDS011;39794;55.782;37.452;2022-09-09T10:34:11;1.85;;;0.68;;
53881;SDS011;39794;55.782;37.452;2022-09-09T10:36:44;2.58;;;0.80;;
53881;SDS011;39794;55.782;37.452;2022-09-09T10:39:20;4.22;;;1.02;;
53881;SDS011;39794;55.782;37.452;2022-09-09T10:41:59;0.70;;;0.60;;
53881;SDS011;39794;55.782;37.452;2022-09-09T10:44:47;0.63;;;0.52;;
53881;SDS011;39794;55.782;37.452;2022-09-09T10:47:37;2.55;;;0.50;;
53881;SDS011;39794;55.782;37.452;2022-09-09T10:50:14;1.77;;;0.60;;
53881;SDS011;39794;55.782;37.452;2022-09-09T10:53:15;1.58;;;0.60;;
53881;SDS011;39794;55.782;37.452;2022-09-09T10:55:53;1.17;;;0.73;;
53881;SDS011;39794;55.782;37.452;2022-09-09T10:58:25;1.52;;;0.80;;
53881;SDS011;39794;55.782;37.452;2022-09-09T11:00:57;1.25;;;0.85;;
53881;SDS011;39794;55.782;37.452;2022-09-09T11:03:29;0.80;;;0.47;;
53881;SDS011;39794;55.782;37.452;2022-09-09T11:05:59;1.95;;;0.60;;
53881;SDS011;39794;55.782;37.452;2022-09-09T11:08:29;1.42;;;0.60;;
53881;SDS011;39794;55.782;37.452;2022-09-09T11:11:02;0.70;;;0.60;;
53881;SDS011;39794;55.782;37.452;2022-09-09T11:13:37;3.25;;;0.80;;
53881;SDS011;39794;55.782;37.452;2022-09-09T11:16:15;1.42;;;0.70;;
53881;SDS011;39794;55.782;37.452;2022-09-09T11:18:47;1.88;;;0.68;;
53881;SDS011;39794;55.782;37.452;2022-09-09T11:21:17;1.00;;;0.80;;
53881;SDS011;39794;55.782;37.452;2022-09-09T11:23:51;1.85;;;0.60;;
53881;SDS011;39794;55.782;37.452;2022-09-09T11:26:25;2.30;;;0.93;;
53881;SDS011;39794;55.782;37.452;2022-09-09T11:29:06;7.00;;;2.45;;
53881;SDS011;39794;55.782;37.452;2022-09-09T11:31:53;1.27;;;0.50;;
53881;SDS011;39794;55.782;37.452;2022-09-09T11:34:35;2.83;;;1.00;;
53881;SDS011;39794;55.782;37.452;2022-09-09T11:37:15;1.55;;;0.68;;
53881;SDS011;39794;55.782;37.452;2022-09-09T11:39:57;1.33;;;0.63;;
53881;SDS011;39794;55.782;37.452;2022-09-09T11:42:45;0.95;;;0.60;;
53881;SDS011;39794;55.782;37.452;2022-09-09T11:45:20;1.55;;;0.70;;
53881;SDS011;39794;55.782;37.452;2022-09-09T11:47:53;1.67;;;1.00;;
53881;SDS011;39794;55.782;37.452;2022-09-09T11:50:30;3.00;;;0.60;;
53881;SDS011;39794;55.782;37.452;2022-09-09T11:53:16;1.33;;;0.50;;
53881;SDS011;39794;55.782;37.452;2022-09-09T11:58:40;6.32;;;0.75;;
53881;SDS011;39794;55.782;37.452;2022-09-09T12:01:26;6.28;;;0.70;;
53881;SDS011;39794;55.782;37.452;2022-09-09T12:04:06;0.70;;;0.57;;
53881;SDS011;39794;55.782;37.452;2022-09-09T12:07:02;5.70;;;0.80;;
53881;SDS011;39794;55.782;37.452;2022-09-09T12:09:36;1.48;;;0.50;;
53881;SDS011;39794;55.782;37.452;2022-09-09T12:12:21;4.50;;;0.80;;
53881;SDS011;39794;55.782;37.452;2022-09-09T12:14:57;0.80;;;0.55;;
53881;SDS011;39794;55.782;37.452;2022-09-09T12:17:29;1.10;;;0.60;;
53881;SDS011;39794;55.782;37.452;2022-09-09T12:20:00;6.60;;;1.20;;
53881;SDS011;39794;55.782;37.452;2022-09-09T12:22:35;2.42;;;0.60;;
53881;SDS011;39794;55.782;37.452;2022-09-09T12:25:09;1.92;;;0.85;;
53881;SDS011;39794;55.782;37.452;2022-09-09T12:27:53;3.97;;;0.95;;
53881;SDS011;39794;55.782;37.452;2022-09-09T12:30:31;0.77;;;0.50;;
53881;SDS011;39794;55.782;37.452;2022-09-09T12:33:07;0.77;;;0.63;;
53881;SDS011;39794;55.782;37.452;2022-09-09T12:35:38;1.52;;;0.70;;
53881;SDS011;39794;55.782;37.452;2022-09-09T12:38:09;1.98;;;0.50;;
53881;SDS011;39794;55.782;37.452;2022-09-09T12:40:41;1.35;;;0.60;;
53881;SDS011;39794;55.782;37.452;2022-09-09T12:43:17;11.15;;;1.02;;
53881;SDS011;39794;55.782;37.452;2022-09-09T12:45:49;1.58;;;0.60;;
53881;SDS011;39794;55.782;37.452;2022-09-09T12:48:25;0.77;;;0.43;;
53881;SDS011;39794;55.782;37.452;2022-09-09T12:51:06;1.75;;;0.57;;
53881;SDS011;39794;55.782;37.452;2022-09-09T12:53:44;2.50;;;0.73;;
53881;SDS011;39794;55.782;37.452;2022-09-09T12:56:18;2.05;;;1.42;;
53881;SDS011;39794;55.782;37.452;2022-09-09T12:58:48;2.47;;;0.50;;
53881;SDS011;39794;55.782;37.452;2022-09-09T13:01:22;3.17;;;0.70;;
53881;SDS011;39794;55.782;37.452;2022-09-09T13:03:51;2.42;;;0.52;;
53881;SDS011;39794;55.782;37.452;2022-09-09T13:06:21;0.98;;;0.40;;
53881;SDS011;39794;55.782;37.452;2022-09-09T13:08:55;0.65;;;0.60;;
53881;SDS011;39794;55.782;37.452;2022-09-09T13:11:26;3.75;;;0.90;;
53881;SDS011;39794;55.782;37.452;2022-09-09T13:13:58;2.83;;;0.70;;
53881;SDS011;39794;55.782;37.452;2022-09-09T13:16:31;3.20;;;0.90;;
53881;SDS011;39794;55.782;37.452;2022-09-09T13:19:08;0.40;;;0.40;;
53881;SDS011;39794;55.782;37.452;2022-09-09T13:21:41;1.27;;;0.57;;
53881;SDS011;39794;55.782;37.452;2022-09-09T13:24:21;4.50;;;0.68;;
53881;SDS011;39794;55.782;37.452;2022-09-09T13:26:56;2.35;;;0.70;;
53881;SDS011;39794;55.782;37.452;2022-09-09T13:29:27;1.02;;;0.70;;
53881;SDS011;39794;55.782;37.452;2022-09-09T13:32:04;1.23;;;0.80;;
53881;SDS011;39794;55.782;37.452;2022-09-09T13:34:34;1.63;;;0.85;;
53881;SDS011;39794;55.782;37.452;2022-09-09T13:37:03;2.97;;;1.10;;
53881;SDS011;39794;55.782;37.452;2022-09-09T13:39:34;3.10;;;1.48;;
53881;SDS011;39794;55.782;37.452;2022-09-09T13:42:04;4.30;;;1.40;;
53881;SDS011;39794;55.782;37.452;2022-09-09T13:44:34;2.33;;;1.38;;
53881;SDS011;39794;55.782;37.452;2022-09-09T13:47:17;3.47;;;1.50;;
53881;SDS011;39794;55.782;37.452;2022-09-09T13:49:46;3.53;;;1.77;;
53881;SDS011;39794;55.782;37.452;2022-09-09T13:52:15;4.38;;;2.25;;
53881;SDS011;39794;55.782;37.452;2022-09-09T13:54:47;8.98;;;3.05;;
53881;SDS011;39794;55.782;37.452;2022-09-09T13:57:17;5.72;;;2.22;;
53881;SDS011;39794;55.782;37.452;2022-09-09T13:59:47;12.40;;;2.72;;
53881;SDS011;39794;55.782;37.452;2022-09-09T14:02:33;5.00;;;2.55;;
53881;SDS011;39794;55.782;37.452;2022-09-09T14:05:02;4.05;;;2.20;;
53881;SDS011;39794;55.782;37.452;2022-09-09T14:07:31;2.97;;;1.63;;
53881;SDS011;39794;55.782;37.452;2022-09-09T14:09:59;5.43;;;2.35;;
53881;SDS011;39794;55.782;37.452;2022-09-09T14:12:29;6.60;;;2.50;;
53881;SDS011;39794;55.782;37.452;2022-09-09T14:14:58;3.47;;;1.52;;
53881;SDS011;39794;55.782;37.452;2022-09-09T14:17:29;5.75;;;1.80;;
53881;SDS011;39794;55.782;37.452;2022-09-09T14:19:59;5.78;;;2.58;;
53881;SDS011;39794;55.782;37.452;2022-09-09T14:22:28;4.78;;;2.17;;
53881;SDS011;39794;55.782;37.452;2022-09-09T14:24:57;4.93;;;1.92;;
53881;SDS011;39794;55.782;37.452;2022-09-09T14:27:25;3.97;;;1.80;;
53881;SDS011;39794;55.782;37.452;2022-09-09T14:29:54;4.38;;;1.80;;
53881;SDS011;39794;55.782;37.452;2022-09-09T14:32:23;3.65;;;1.80;;
53881;SDS011;39794;55.782;37.452;2022-09-09T14:34:52;2.28;;;1.30;;
53881;SDS011;39794;55.782;37.452;2022-09-09T14:37:22;3.80;;;1.52;;
53881;SDS011;39794;55.782;37.452;2022-09-09T14:39:52;4.22;;;1.50;;
53881;SDS011;39794;55.782;37.452;2022-09-09T14:42:27;3.25;;;1.42;;
53881;SDS011;39794;55.782;37.452;2022-09-09T14:44:57;3.53;;;1.35;;
53881;SDS011;39794;55.782;37.452;2022-09-09T14:47:25;2.75;;;1.20;;
53881;SDS011;39794;55.782;37.452;2022-09-09T14:49:55;3.60;;;1.30;;
53881;SDS011;39794;55.782;37.452;2022-09-09T14:52:25;3.80;;;0.90;;
53881;SDS011;39794;55.782;37.452;2022-09-09T14:54:54;1.60;;;0.82;;
53881;SDS011;39794;55.782;37.452;2022-09-09T14:57:24;1.88;;;0.70;;
53881;SDS011;39794;55.782;37.452;2022-09-09T14:59:55;2.60;;;0.82;;
53881;SDS011;39794;55.782;37.452;2022-09-09T15:02:29;1.67;;;0.93;;
53881;SDS011;39794;55.782;37.452;2022-09-09T15:04:58;3.08;;;1.30;;
53881;SDS011;39794;55.782;37.452;2022-09-09T15:07:30;3.03;;;1.10;;
53881;SDS011;39794;55.782;37.452;2022-09-09T15:10:00;4.07;;;1.70;;
53881;SDS011;39794;55.782;37.452;2022-09-09T15:12:31;9.35;;;2.05;;
53881;SDS011;39794;55.782;37.452;2022-09-09T15:15:01;3.88;;;1.70;;
53881;SDS011;39794;55.782;37.452;2022-09-09T15:17:39;2.17;;;1.73;;
53881;SDS011;39794;55.782;37.452;2022-09-09T15:20:08;2.33;;;1.70;;
53881;SDS011;39794;55.782;37.452;2022-09-09T15:22:40;6.88;;;1.52;;
53881;SDS011;39794;55.782;37.452;2022-09-09T15:25:11;5.32;;;1.55;;
53881;SDS011;39794;55.782;37.452;2022-09-09T15:27:41;4.88;;;2.25;;